sensor_id;sensor_type;location;lat;lon;timestamp;temperature;humidity
10453;DHT22;5274;51.992;8.518;2022-10-26T00:02:21;9.10;99.90
10453;DHT22;5274;51.992;8.518;2022-10-26T00:04:46;9.10;99.90
10453;DHT22;5274;51.992;8.518;2022-10-26T00:07:12;9.10;99.90
10453;DHT22;5274;51.992;8.518;2022-10-26T00:09:37;9.10;99.90
10453;DHT22;5274;51.992;8.518;2022-10-26T00:12:03;9.10;99.90
10453;DHT22;5274;51.992;8.518;2022-10-26T00:14:29;9.20;99.90
10453;DHT22;5274;51.992;8.518;2022-10-26T00:16:54;9.10;99.90
10453;DHT22;5274;51.992;8.518;2022-10-26T00:19:20;9.10;99.90
10453;DHT22;5274;51.992;8.518;2022-10-26T00:21:46;9.10;99.90
10453;DHT22;5274;51.992;8.518;2022-10-26T00:24:11;9.20;99.90
10453;DHT22;5274;51.992;8.518;2022-10-26T00:26:38;9.20;99.90
10453;DHT22;5274;51.992;8.518;2022-10-26T00:29:04;9.20;99.90
10453;DHT22;5274;51.992;8.518;2022-10-26T00:31:29;9.20;99.90
10453;DHT22;5274;51.992;8.518;2022-10-26T00:33:55;9.20;99.90
10453;DHT22;5274;51.992;8.518;2022-10-26T00:36:22;9.20;99.90
10453;DHT22;5274;51.992;8.518;2022-10-26T00:38:52;9.20;99.90
10453;DHT22;5274;51.992;8.518;2022-10-26T00:41:21;9.20;99.90
10453;DHT22;5274;51.992;8.518;2022-10-26T00:43:47;9.20;99.90
10453;DHT22;5274;51.992;8.518;2022-10-26T00:46:17;9.20;99.90
10453;DHT22;5274;51.992;8.518;2022-10-26T00:48:48;9.20;99.90
10453;DHT22;5274;51.992;8.518;2022-10-26T00:51:31;9.30;99.90
10453;DHT22;5274;51.992;8.518;2022-10-26T00:54:02;9.30;99.90
10453;DHT22;5274;51.992;8.518;2022-10-26T00:56:29;9.30;99.90
10453;DHT22;5274;51.992;8.518;2022-10-26T00:58:58;9.30;99.90
10453;DHT22;5274;51.992;8.518;2022-10-26T01:01:24;9.30;99.90
10453;DHT22;5274;51.992;8.518;2022-10-26T01:03:50;9.30;99.90
10453;DHT22;5274;51.992;8.518;2022-10-26T01:06:16;9.30;99.90
10453;DHT22;5274;51.992;8.518;2022-10-26T01:08:42;9.40;99.90
10453;DHT22;5274;51.992;8.518;2022-10-26T01:11:08;9.40;99.90
10453;DHT22;5274;51.992;8.518;2022-10-26T01:13:35;9.40;99.90
10453;DHT22;5274;51.992;8.518;2022-10-26T01:22:01;9.50;99.90
10453;DHT22;5274;51.992;8.518;2022-10-26T01:27:31;10.40;99.90
10453;DHT22;5274;51.992;8.518;2022-10-26T01:33:32;9.70;99.90
10453;DHT22;5274;51.992;8.518;2022-10-26T01:36:12;9.80;99.90
10453;DHT22;5274;51.992;8.518;2022-10-26T01:39:38;9.80;99.90
10453;DHT22;5274;51.992;8.518;2022-10-26T01:44:22;9.90;99.90
10453;DHT22;5274;51.992;8.518;2022-10-26T01:46:51;9.90;99.90
10453;DHT22;5274;51.992;8.518;2022-10-26T01:49:21;9.90;99.90
10453;DHT22;5274;51.992;8.518;2022-10-26T01:51:48;10.00;99.90
10453;DHT22;5274;51.992;8.518;2022-10-26T01:54:15;10.00;99.90
10453;DHT22;5274;51.992;8.518;2022-10-26T01:56:43;10.00;99.90
10453;DHT22;5274;51.992;8.518;2022-10-26T02:09:59;10.10;99.90
10453;DHT22;5274;51.992;8.518;2022-10-26T02:12:55;10.10;99.90
10453;DHT22;5274;51.992;8.518;2022-10-26T02:15:39;10.10;99.90
10453;DHT22;5274;51.992;8.518;2022-10-26T02:18:19;10.10;99.90
10453;DHT22;5274;51.992;8.518;2022-10-26T02:20:50;10.10;99.90
10453;DHT22;5274;51.992;8.518;2022-10-26T02:23:18;10.10;99.90
10453;DHT22;5274;51.992;8.518;2022-10-26T02:25:49;10.10;99.90
10453;DHT22;5274;51.992;8.518;2022-10-26T02:28:21;10.10;99.90
10453;DHT22;5274;51.992;8.518;2022-10-26T02:30:51;10.20;99.90
10453;DHT22;5274;51.992;8.518;2022-10-26T02:33:19;10.20;99.90
10453;DHT22;5274;51.992;8.518;2022-10-26T02:35:48;10.20;99.90
10453;DHT22;5274;51.992;8.518;2022-10-26T02:38:17;10.20;99.90
10453;DHT22;5274;51.992;8.518;2022-10-26T02:40:45;10.20;99.90
10453;DHT22;5274;51.992;8.518;2022-10-26T02:43:14;10.20;99.90
10453;DHT22;5274;51.992;8.518;2022-10-26T02:45:46;10.20;99.90
10453;DHT22;5274;51.992;8.518;2022-10-26T02:48:13;10.20;99.90
10453;DHT22;5274;51.992;8.518;2022-10-26T02:51:04;10.30;99.90
10453;DHT22;5274;51.992;8.518;2022-10-26T02:53:41;10.30;99.90
10453;DHT22;5274;51.992;8.518;2022-10-26T02:56:15;10.30;99.90
10453;DHT22;5274;51.992;8.518;2022-10-26T02:58:45;10.30;99.90
10453;DHT22;5274;51.992;8.518;2022-10-26T03:01:12;10.30;99.90
10453;DHT22;5274;51.992;8.518;2022-10-26T03:03:38;10.30;99.90
10453;DHT22;5274;51.992;8.518;2022-10-26T03:06:04;10.30;99.90
10453;DHT22;5274;51.992;8.518;2022-10-26T03:08:29;10.30;99.90
10453;DHT22;5274;51.992;8.518;2022-10-26T03:10:55;10.30;99.90
10453;DHT22;5274;51.992;8.518;2022-10-26T03:13:20;10.30;99.90
10453;DHT22;5274;51.992;8.518;2022-10-26T03:15:46;10.20;99.90
10453;DHT22;5274;51.992;8.518;2022-10-26T03:18:11;10.20;99.90
10453;DHT22;5274;51.992;8.518;2022-10-26T03:20:37;10.20;99.90
10453;DHT22;5274;51.992;8.518;2022-10-26T03:23:03;10.20;99.90
10453;DHT22;5274;51.992;8.518;2022-10-26T03:25:28;10.30;99.90
10453;DHT22;5274;51.992;8.518;2022-10-26T03:27:58;10.30;99.90
10453;DHT22;5274;51.992;8.518;2022-10-26T03:30:24;10.40;99.90
10453;DHT22;5274;51.992;8.518;2022-10-26T03:32:50;10.40;99.90
10453;DHT22;5274;51.992;8.518;2022-10-26T03:35:15;10.30;99.90
10453;DHT22;5274;51.992;8.518;2022-10-26T03:37:41;11.20;99.90
10453;DHT22;5274;51.992;8.518;2022-10-26T03:40:07;10.30;99.90
10453;DHT22;5274;51.992;8.518;2022-10-26T03:42:35;10.30;99.90
10453;DHT22;5274;51.992;8.518;2022-10-26T03:45:01;10.30;99.90
10453;DHT22;5274;51.992;8.518;2022-10-26T03:47:26;10.40;99.90
10453;DHT22;5274;51.992;8.518;2022-10-26T03:49:52;10.40;99.90
10453;DHT22;5274;51.992;8.518;2022-10-26T03:52:17;11.30;99.90
10453;DHT22;5274;51.992;8.518;2022-10-26T03:54:43;10.50;99.90
10453;DHT22;5274;51.992;8.518;2022-10-26T03:57:08;10.50;99.90
10453;DHT22;5274;51.992;8.518;2022-10-26T03:59:34;10.60;99.90
10453;DHT22;5274;51.992;8.518;2022-10-26T04:01:59;10.60;99.90
10453;DHT22;5274;51.992;8.518;2022-10-26T04:04:24;10.70;99.90
10453;DHT22;5274;51.992;8.518;2022-10-26T04:06:51;10.70;99.90
10453;DHT22;5274;51.992;8.518;2022-10-26T04:09:16;10.70;99.90
10453;DHT22;5274;51.992;8.518;2022-10-26T04:11:42;10.80;99.90
10453;DHT22;5274;51.992;8.518;2022-10-26T04:14:07;10.80;99.90
10453;DHT22;5274;51.992;8.518;2022-10-26T04:16:33;10.80;99.90
10453;DHT22;5274;51.992;8.518;2022-10-26T04:18:58;10.80;99.90
10453;DHT22;5274;51.992;8.518;2022-10-26T04:21:24;10.80;99.90
10453;DHT22;5274;51.992;8.518;2022-10-26T04:23:49;10.90;99.90
10453;DHT22;5274;51.992;8.518;2022-10-26T04:26:15;10.90;99.90
10453;DHT22;5274;51.992;8.518;2022-10-26T04:28:41;10.90;99.90
10453;DHT22;5274;51.992;8.518;2022-10-26T04:31:06;10.90;99.90
10453;DHT22;5274;51.992;8.518;2022-10-26T04:33:32;10.90;99.90
10453;DHT22;5274;51.992;8.518;2022-10-26T04:36:00;10.90;99.90
10453;DHT22;5274;51.992;8.518;2022-10-26T04:38:26;11.00;99.90
10453;DHT22;5274;51.992;8.518;2022-10-26T04:40:52;10.90;99.90
10453;DHT22;5274;51.992;8.518;2022-10-26T04:43:17;11.00;99.90
10453;DHT22;5274;51.992;8.518;2022-10-26T04:45:43;11.00;99.90
10453;DHT22;5274;51.992;8.518;2022-10-26T04:48:10;11.00;99.90
10453;DHT22;5274;51.992;8.518;2022-10-26T04:50:37;11.10;99.90
10453;DHT22;5274;51.992;8.518;2022-10-26T04:53:04;11.10;94.80
10453;DHT22;5274;51.992;8.518;2022-10-26T04:55:30;11.20;17.90
10453;DHT22;5274;51.992;8.518;2022-10-26T04:57:56;11.20;40.60
10453;DHT22;5274;51.992;8.518;2022-10-26T05:00:21;11.20;38.90
10453;DHT22;5274;51.992;8.518;2022-10-26T05:02:47;11.20;35.60
10453;DHT22;5274;51.992;8.518;2022-10-26T05:05:12;11.30;8.80
10453;DHT22;5274;51.992;8.518;2022-10-26T05:07:38;11.20;1.00
10453;DHT22;5274;51.992;8.518;2022-10-26T05:10:04;11.20;10.10
10453;DHT22;5274;51.992;8.518;2022-10-26T05:12:29;11.20;1.00
10453;DHT22;5274;51.992;8.518;2022-10-26T05:14:55;11.20;1.00
10453;DHT22;5274;51.992;8.518;2022-10-26T05:17:24;11.20;1.00
10453;DHT22;5274;51.992;8.518;2022-10-26T05:19:49;11.20;1.00
10453;DHT22;5274;51.992;8.518;2022-10-26T05:22:25;11.20;1.00
10453;DHT22;5274;51.992;8.518;2022-10-26T05:24:51;11.30;1.00
10453;DHT22;5274;51.992;8.518;2022-10-26T05:27:17;11.30;1.00
10453;DHT22;5274;51.992;8.518;2022-10-26T05:29:42;11.20;1.00
10453;DHT22;5274;51.992;8.518;2022-10-26T05:32:08;11.30;1.00
10453;DHT22;5274;51.992;8.518;2022-10-26T05:34:34;11.30;1.00
10453;DHT22;5274;51.992;8.518;2022-10-26T05:36:59;11.30;1.00
10453;DHT22;5274;51.992;8.518;2022-10-26T05:39:25;11.40;1.00
10453;DHT22;5274;51.992;8.518;2022-10-26T05:41:50;11.30;1.00
10453;DHT22;5274;51.992;8.518;2022-10-26T05:44:16;11.30;1.00
10453;DHT22;5274;51.992;8.518;2022-10-26T05:46:41;11.30;1.00
10453;DHT22;5274;51.992;8.518;2022-10-26T05:49:07;11.30;1.00
10453;DHT22;5274;51.992;8.518;2022-10-26T05:51:32;11.30;1.00
10453;DHT22;5274;51.992;8.518;2022-10-26T05:53:59;11.30;1.00
10453;DHT22;5274;51.992;8.518;2022-10-26T05:56:43;11.30;1.00
10453;DHT22;5274;51.992;8.518;2022-10-26T05:59:13;11.30;1.00
10453;DHT22;5274;51.992;8.518;2022-10-26T06:02:08;11.40;1.00
10453;DHT22;5274;51.992;8.518;2022-10-26T06:04:45;11.40;1.00
10453;DHT22;5274;51.992;8.518;2022-10-26T06:07:17;11.60;1.00
10453;DHT22;5274;51.992;8.518;2022-10-26T06:09:45;11.60;1.00
10453;DHT22;5274;51.992;8.518;2022-10-26T06:12:11;11.60;1.00
10453;DHT22;5274;51.992;8.518;2022-10-26T06:14:37;11.60;1.00
10453;DHT22;5274;51.992;8.518;2022-10-26T06:22:51;11.80;1.00
10453;DHT22;5274;51.992;8.518;2022-10-26T06:28:13;11.80;1.00
10453;DHT22;5274;51.992;8.518;2022-10-26T06:30:42;11.80;1.00
10453;DHT22;5274;51.992;8.518;2022-10-26T06:33:09;11.90;1.00
10453;DHT22;5274;51.992;8.518;2022-10-26T06:35:57;11.90;1.00
10453;DHT22;5274;51.992;8.518;2022-10-26T06:38:26;12.00;1.00
10453;DHT22;5274;51.992;8.518;2022-10-26T06:40:55;12.10;1.00
10453;DHT22;5274;51.992;8.518;2022-10-26T06:43:26;12.10;1.00
10453;DHT22;5274;51.992;8.518;2022-10-26T06:51:28;12.30;99.90
10453;DHT22;5274;51.992;8.518;2022-10-26T06:56:46;12.40;99.90
10453;DHT22;5274;51.992;8.518;2022-10-26T06:59:39;12.40;99.90
10453;DHT22;5274;51.992;8.518;2022-10-26T07:02:11;12.50;99.90
10453;DHT22;5274;51.992;8.518;2022-10-26T07:04:37;12.50;99.90
10453;DHT22;5274;51.992;8.518;2022-10-26T07:07:02;13.00;99.90
10453;DHT22;5274;51.992;8.518;2022-10-26T07:09:28;12.60;99.90
10453;DHT22;5274;51.992;8.518;2022-10-26T07:11:53;12.70;99.90
10453;DHT22;5274;51.992;8.518;2022-10-26T07:14:19;12.70;99.90
10453;DHT22;5274;51.992;8.518;2022-10-26T07:16:45;12.80;99.90
10453;DHT22;5274;51.992;8.518;2022-10-26T07:19:10;12.90;79.50
10453;DHT22;5274;51.992;8.518;2022-10-26T07:21:36;13.00;1.00
10453;DHT22;5274;51.992;8.518;2022-10-26T07:24:01;13.00;1.00
10453;DHT22;5274;51.992;8.518;2022-10-26T07:26:27;13.10;1.00
10453;DHT22;5274;51.992;8.518;2022-10-26T07:28:52;13.10;1.00
10453;DHT22;5274;51.992;8.518;2022-10-26T07:31:18;13.20;1.00
10453;DHT22;5274;51.992;8.518;2022-10-26T07:33:44;13.20;99.90
10453;DHT22;5274;51.992;8.518;2022-10-26T07:36:10;13.20;99.90
10453;DHT22;5274;51.992;8.518;2022-10-26T07:38:37;13.30;99.90
10453;DHT22;5274;51.992;8.518;2022-10-26T07:41:03;13.20;99.90
10453;DHT22;5274;51.992;8.518;2022-10-26T07:43:29;13.30;49.10
10453;DHT22;5274;51.992;8.518;2022-10-26T07:45:54;13.20;99.90
10453;DHT22;5274;51.992;8.518;2022-10-26T07:48:20;13.20;99.90
10453;DHT22;5274;51.992;8.518;2022-10-26T07:50:45;13.20;99.90
10453;DHT22;5274;51.992;8.518;2022-10-26T07:53:11;13.30;99.90
10453;DHT22;5274;51.992;8.518;2022-10-26T07:55:37;13.30;99.90
10453;DHT22;5274;51.992;8.518;2022-10-26T07:58:02;13.30;99.90
10453;DHT22;5274;51.992;8.518;2022-10-26T08:00:28;13.40;99.90
10453;DHT22;5274;51.992;8.518;2022-10-26T08:02:54;13.40;99.90
10453;DHT22;5274;51.992;8.518;2022-10-26T08:05:20;13.50;72.00
10453;DHT22;5274;51.992;8.518;2022-10-26T08:07:45;13.60;99.90
10453;DHT22;5274;51.992;8.518;2022-10-26T08:10:12;13.70;99.90
10453;DHT22;5274;51.992;8.518;2022-10-26T08:12:38;13.80;1.00
10453;DHT22;5274;51.992;8.518;2022-10-26T08:15:05;13.90;1.00
10453;DHT22;5274;51.992;8.518;2022-10-26T08:17:31;14.00;99.90
10453;DHT22;5274;51.992;8.518;2022-10-26T08:19:57;14.10;99.90
10453;DHT22;5274;51.992;8.518;2022-10-26T08:22:22;14.20;99.90
10453;DHT22;5274;51.992;8.518;2022-10-26T08:24:48;14.30;99.90
10453;DHT22;5274;51.992;8.518;2022-10-26T08:27:14;14.30;99.90
10453;DHT22;5274;51.992;8.518;2022-10-26T08:29:40;14.40;1.00
10453;DHT22;5274;51.992;8.518;2022-10-26T08:32:06;14.60;99.90
10453;DHT22;5274;51.992;8.518;2022-10-26T08:34:32;14.70;1.00
10453;DHT22;5274;51.992;8.518;2022-10-26T08:36:57;14.80;1.00
10453;DHT22;5274;51.992;8.518;2022-10-26T08:39:23;14.90;99.90
10453;DHT22;5274;51.992;8.518;2022-10-26T08:41:57;15.10;99.90
10453;DHT22;5274;51.992;8.518;2022-10-26T08:44:41;15.20;1.00
10453;DHT22;5274;51.992;8.518;2022-10-26T08:47:36;15.30;1.00
10453;DHT22;5274;51.992;8.518;2022-10-26T08:50:13;15.40;1.00
10453;DHT22;5274;51.992;8.518;2022-10-26T08:52:47;15.50;1.00
10453;DHT22;5274;51.992;8.518;2022-10-26T08:55:22;15.60;99.90
10453;DHT22;5274;51.992;8.518;2022-10-26T08:57:51;15.60;99.90
10453;DHT22;5274;51.992;8.518;2022-10-26T09:00:21;15.60;93.10
10453;DHT22;5274;51.992;8.518;2022-10-26T09:02:51;15.70;1.00
10453;DHT22;5274;51.992;8.518;2022-10-26T09:16:31;16.30;1.00
10453;DHT22;5274;51.992;8.518;2022-10-26T09:24:54;16.10;1.00
10453;DHT22;5274;51.992;8.518;2022-10-26T09:27:28;16.10;99.90
10453;DHT22;5274;51.992;8.518;2022-10-26T09:29:59;16.20;30.20
10453;DHT22;5274;51.992;8.518;2022-10-26T09:32:39;16.30;99.90
10453;DHT22;5274;51.992;8.518;2022-10-26T09:35:20;16.40;1.00
10453;DHT22;5274;51.992;8.518;2022-10-26T09:38:04;16.50;99.90
10453;DHT22;5274;51.992;8.518;2022-10-26T09:40:35;16.50;99.90
10453;DHT22;5274;51.992;8.518;2022-10-26T09:43:11;16.50;99.90
10453;DHT22;5274;51.992;8.518;2022-10-26T09:45:43;16.50;99.90
10453;DHT22;5274;51.992;8.518;2022-10-26T09:48:48;16.50;99.90
10453;DHT22;5274;51.992;8.518;2022-10-26T09:51:06;16.60;99.90
10453;DHT22;5274;51.992;8.518;2022-10-26T09:53:32;16.60;99.90
10453;DHT22;5274;51.992;8.518;2022-10-26T09:56:06;16.60;99.90
10453;DHT22;5274;51.992;8.518;2022-10-26T09:58:36;16.60;99.90
10453;DHT22;5274;51.992;8.518;2022-10-26T10:01:04;16.80;99.90
10453;DHT22;5274;51.992;8.518;2022-10-26T10:03:31;16.80;1.00
10453;DHT22;5274;51.992;8.518;2022-10-26T10:06:17;16.90;1.00
10453;DHT22;5274;51.992;8.518;2022-10-26T10:08:43;16.90;1.00
10453;DHT22;5274;51.992;8.518;2022-10-26T10:11:14;16.90;1.00
10453;DHT22;5274;51.992;8.518;2022-10-26T10:13:41;17.00;1.00
10453;DHT22;5274;51.992;8.518;2022-10-26T10:16:20;17.20;1.00
10453;DHT22;5274;51.992;8.518;2022-10-26T10:18:57;17.50;1.00
10453;DHT22;5274;51.992;8.518;2022-10-26T10:21:44;17.90;99.90
10453;DHT22;5274;51.992;8.518;2022-10-26T10:29:41;18.60;1.00
10453;DHT22;5274;51.992;8.518;2022-10-26T10:32:21;18.60;1.00
10453;DHT22;5274;51.992;8.518;2022-10-26T10:34:48;18.40;1.00
10453;DHT22;5274;51.992;8.518;2022-10-26T10:42:24;18.30;1.00
10453;DHT22;5274;51.992;8.518;2022-10-26T10:44:53;18.20;1.00
10453;DHT22;5274;51.992;8.518;2022-10-26T10:47:25;18.20;99.90
10453;DHT22;5274;51.992;8.518;2022-10-26T10:50:16;18.20;1.00
10453;DHT22;5274;51.992;8.518;2022-10-26T10:52:43;18.20;1.00
10453;DHT22;5274;51.992;8.518;2022-10-26T11:00:25;18.30;1.00
10453;DHT22;5274;51.992;8.518;2022-10-26T11:08:43;18.40;1.00
10453;DHT22;5274;51.992;8.518;2022-10-26T11:14:20;18.40;99.90
10453;DHT22;5274;51.992;8.518;2022-10-26T11:19:46;20.30;99.90
10453;DHT22;5274;51.992;8.518;2022-10-26T11:22:17;23.50;1.00
10453;DHT22;5274;51.992;8.518;2022-10-26T11:25:23;25.70;99.90
10453;DHT22;5274;51.992;8.518;2022-10-26T11:27:52;27.40;99.90
10453;DHT22;5274;51.992;8.518;2022-10-26T11:30:21;29.00;99.90
10453;DHT22;5274;51.992;8.518;2022-10-26T11:32:59;29.60;99.90
10453;DHT22;5274;51.992;8.518;2022-10-26T11:35:31;30.60;99.90
10453;DHT22;5274;51.992;8.518;2022-10-26T11:40:46;30.90;99.90
10453;DHT22;5274;51.992;8.518;2022-10-26T11:43:39;31.50;99.90
10453;DHT22;5274;51.992;8.518;2022-10-26T11:46:29;32.20;99.90
10453;DHT22;5274;51.992;8.518;2022-10-26T11:52:23;30.10;99.90
10453;DHT22;5274;51.992;8.518;2022-10-26T11:54:59;31.00;99.90
10453;DHT22;5274;51.992;8.518;2022-10-26T11:57:30;31.80;99.90
10453;DHT22;5274;51.992;8.518;2022-10-26T12:00:06;31.40;99.90
10453;DHT22;5274;51.992;8.518;2022-10-26T12:02:40;30.30;99.90
10453;DHT22;5274;51.992;8.518;2022-10-26T12:07:58;27.50;99.90
10453;DHT22;5274;51.992;8.518;2022-10-26T12:10:27;28.80;99.90
10453;DHT22;5274;51.992;8.518;2022-10-26T12:13:19;30.00;99.90
10453;DHT22;5274;51.992;8.518;2022-10-26T12:15:55;29.00;99.90
10453;DHT22;5274;51.992;8.518;2022-10-26T12:21:05;26.20;99.90
10453;DHT22;5274;51.992;8.518;2022-10-26T12:23:37;25.20;99.90
10453;DHT22;5274;51.992;8.518;2022-10-26T12:28:48;23.80;99.90
10453;DHT22;5274;51.992;8.518;2022-10-26T12:34:09;23.90;99.90
10453;DHT22;5274;51.992;8.518;2022-10-26T12:39:32;24.10;99.90
10453;DHT22;5274;51.992;8.518;2022-10-26T12:44:37;28.90;99.90
10453;DHT22;5274;51.992;8.518;2022-10-26T12:47:04;31.00;99.90
10453;DHT22;5274;51.992;8.518;2022-10-26T12:58:29;30.90;99.90
10453;DHT22;5274;51.992;8.518;2022-10-26T13:03:34;30.90;99.90
10453;DHT22;5274;51.992;8.518;2022-10-26T13:09:06;29.80;99.90
10453;DHT22;5274;51.992;8.518;2022-10-26T13:11:36;28.70;99.90
10453;DHT22;5274;51.992;8.518;2022-10-26T13:14:14;27.40;99.90
10453;DHT22;5274;51.992;8.518;2022-10-26T13:16:44;26.60;99.90
10453;DHT22;5274;51.992;8.518;2022-10-26T13:19:31;25.80;99.90
10453;DHT22;5274;51.992;8.518;2022-10-26T13:22:00;25.30;99.90
10453;DHT22;5274;51.992;8.518;2022-10-26T13:24:28;24.90;99.90
10453;DHT22;5274;51.992;8.518;2022-10-26T13:29:30;23.50;99.90
10453;DHT22;5274;51.992;8.518;2022-10-26T13:31:56;23.20;99.90
10453;DHT22;5274;51.992;8.518;2022-10-26T13:34:24;23.30;99.90
10453;DHT22;5274;51.992;8.518;2022-10-26T13:37:11;23.20;1.00
10453;DHT22;5274;51.992;8.518;2022-10-26T13:39:42;23.40;1.00
10453;DHT22;5274;51.992;8.518;2022-10-26T13:42:19;23.20;1.00
10453;DHT22;5274;51.992;8.518;2022-10-26T13:50:14;22.10;1.00
10453;DHT22;5274;51.992;8.518;2022-10-26T13:52:46;21.90;1.00
10453;DHT22;5274;51.992;8.518;2022-10-26T13:55:26;21.30;1.00
10453;DHT22;5274;51.992;8.518;2022-10-26T13:58:24;21.40;1.00
10453;DHT22;5274;51.992;8.518;2022-10-26T14:01:11;21.20;1.00
10453;DHT22;5274;51.992;8.518;2022-10-26T14:03:37;21.10;1.00
10453;DHT22;5274;51.992;8.518;2022-10-26T14:06:16;21.30;1.00
10453;DHT22;5274;51.992;8.518;2022-10-26T14:08:43;21.00;1.00
10453;DHT22;5274;51.992;8.518;2022-10-26T14:11:13;21.00;1.00
10453;DHT22;5274;51.992;8.518;2022-10-26T14:13:40;21.20;1.00
10453;DHT22;5274;51.992;8.518;2022-10-26T14:16:07;21.20;1.00
10453;DHT22;5274;51.992;8.518;2022-10-26T14:18:33;21.30;1.00
10453;DHT22;5274;51.992;8.518;2022-10-26T14:21:01;21.10;1.00
10453;DHT22;5274;51.992;8.518;2022-10-26T14:23:33;20.90;1.00
10453;DHT22;5274;51.992;8.518;2022-10-26T14:25:59;20.90;1.00
10453;DHT22;5274;51.992;8.518;2022-10-26T14:28:30;20.80;1.00
10453;DHT22;5274;51.992;8.518;2022-10-26T14:31:22;20.70;1.00
10453;DHT22;5274;51.992;8.518;2022-10-26T14:33:48;20.80;1.00
10453;DHT22;5274;51.992;8.518;2022-10-26T14:36:14;20.70;1.00
10453;DHT22;5274;51.992;8.518;2022-10-26T14:38:44;20.60;1.00
10453;DHT22;5274;51.992;8.518;2022-10-26T14:41:13;20.50;1.00
10453;DHT22;5274;51.992;8.518;2022-10-26T14:43:40;20.50;1.00
10453;DHT22;5274;51.992;8.518;2022-10-26T14:46:05;20.50;1.00
10453;DHT22;5274;51.992;8.518;2022-10-26T14:48:38;20.60;1.00
10453;DHT22;5274;51.992;8.518;2022-10-26T14:51:16;20.40;1.00
10453;DHT22;5274;51.992;8.518;2022-10-26T14:53:51;20.30;1.00
10453;DHT22;5274;51.992;8.518;2022-10-26T14:58:49;20.20;1.00
10453;DHT22;5274;51.992;8.518;2022-10-26T15:01:26;20.10;1.00
10453;DHT22;5274;51.992;8.518;2022-10-26T15:04:37;20.00;1.00
10453;DHT22;5274;51.992;8.518;2022-10-26T15:06:44;20.00;1.00
10453;DHT22;5274;51.992;8.518;2022-10-26T15:09:37;19.90;1.00
10453;DHT22;5274;51.992;8.518;2022-10-26T15:12:03;19.80;4.90
10453;DHT22;5274;51.992;8.518;2022-10-26T15:14:30;19.70;14.40
10453;DHT22;5274;51.992;8.518;2022-10-26T15:16:56;19.60;20.80
10453;DHT22;5274;51.992;8.518;2022-10-26T15:19:23;19.60;31.00
10453;DHT22;5274;51.992;8.518;2022-10-26T15:21:51;19.50;31.80
10453;DHT22;5274;51.992;8.518;2022-10-26T15:24:25;19.50;27.50
10453;DHT22;5274;51.992;8.518;2022-10-26T15:26:52;19.40;38.00
10453;DHT22;5274;51.992;8.518;2022-10-26T15:29:39;19.30;50.60
10453;DHT22;5274;51.992;8.518;2022-10-26T15:35:22;19.10;95.80
10453;DHT22;5274;51.992;8.518;2022-10-26T15:37:50;19.00;99.90
10453;DHT22;5274;51.992;8.518;2022-10-26T15:40:16;18.90;99.90
10453;DHT22;5274;51.992;8.518;2022-10-26T15:42:44;18.90;99.90
10453;DHT22;5274;51.992;8.518;2022-10-26T15:45:28;18.80;99.90
10453;DHT22;5274;51.992;8.518;2022-10-26T15:47:56;18.70;99.90
10453;DHT22;5274;51.992;8.518;2022-10-26T15:50:27;18.50;99.90
10453;DHT22;5274;51.992;8.518;2022-10-26T15:53:00;18.40;99.90
10453;DHT22;5274;51.992;8.518;2022-10-26T15:55:27;18.30;99.90
10453;DHT22;5274;51.992;8.518;2022-10-26T15:57:54;18.30;99.90
10453;DHT22;5274;51.992;8.518;2022-10-26T16:00:19;18.10;99.90
10453;DHT22;5274;51.992;8.518;2022-10-26T16:02:45;18.00;99.90
10453;DHT22;5274;51.992;8.518;2022-10-26T16:05:12;17.90;99.90
10453;DHT22;5274;51.992;8.518;2022-10-26T16:07:39;17.80;99.90
10453;DHT22;5274;51.992;8.518;2022-10-26T16:10:13;17.70;99.90
10453;DHT22;5274;51.992;8.518;2022-10-26T16:12:39;17.60;99.90
10453;DHT22;5274;51.992;8.518;2022-10-26T16:15:05;17.50;99.90
10453;DHT22;5274;51.992;8.518;2022-10-26T16:17:30;17.40;99.90
10453;DHT22;5274;51.992;8.518;2022-10-26T16:19:57;17.20;99.90
10453;DHT22;5274;51.992;8.518;2022-10-26T16:22:24;17.10;99.90
10453;DHT22;5274;51.992;8.518;2022-10-26T16:24:49;17.00;99.90
10453;DHT22;5274;51.992;8.518;2022-10-26T16:27:15;16.90;99.90
10453;DHT22;5274;51.992;8.518;2022-10-26T16:29:41;16.80;1.00
10453;DHT22;5274;51.992;8.518;2022-10-26T16:32:06;16.70;1.00
10453;DHT22;5274;51.992;8.518;2022-10-26T16:34:32;16.60;1.00
10453;DHT22;5274;51.992;8.518;2022-10-26T16:36:57;16.50;1.00
10453;DHT22;5274;51.992;8.518;2022-10-26T16:39:23;16.40;1.00
10453;DHT22;5274;51.992;8.518;2022-10-26T16:41:48;16.30;1.00
10453;DHT22;5274;51.992;8.518;2022-10-26T16:44:15;16.20;1.00
10453;DHT22;5274;51.992;8.518;2022-10-26T16:46:40;16.10;1.00
10453;DHT22;5274;51.992;8.518;2022-10-26T16:49:06;15.00;1.00
10453;DHT22;5274;51.992;8.518;2022-10-26T16:51:31;16.00;1.00
10453;DHT22;5274;51.992;8.518;2022-10-26T16:53:57;15.90;1.00
10453;DHT22;5274;51.992;8.518;2022-10-26T16:56:25;15.80;1.00
10453;DHT22;5274;51.992;8.518;2022-10-26T16:58:51;15.70;1.00
10453;DHT22;5274;51.992;8.518;2022-10-26T17:01:18;15.60;1.00
10453;DHT22;5274;51.992;8.518;2022-10-26T17:03:45;15.50;1.00
10453;DHT22;5274;51.992;8.518;2022-10-26T17:06:10;15.50;1.00
10453;DHT22;5274;51.992;8.518;2022-10-26T17:08:37;15.40;1.00
10453;DHT22;5274;51.992;8.518;2022-10-26T17:11:09;15.40;1.00
10453;DHT22;5274;51.992;8.518;2022-10-26T17:13:35;15.30;1.00
10453;DHT22;5274;51.992;8.518;2022-10-26T17:16:11;15.20;1.00
10453;DHT22;5274;51.992;8.518;2022-10-26T17:18:40;15.20;1.00
10453;DHT22;5274;51.992;8.518;2022-10-26T17:21:08;15.10;1.70
10453;DHT22;5274;51.992;8.518;2022-10-26T17:23:34;15.00;3.50
10453;DHT22;5274;51.992;8.518;2022-10-26T17:26:01;15.00;23.40
10453;DHT22;5274;51.992;8.518;2022-10-26T17:28:27;14.90;97.30
10453;DHT22;5274;51.992;8.518;2022-10-26T17:33:31;14.90;99.90
10453;DHT22;5274;51.992;8.518;2022-10-26T17:35:57;14.80;99.90
10453;DHT22;5274;51.992;8.518;2022-10-26T17:38:23;14.80;99.90
10453;DHT22;5274;51.992;8.518;2022-10-26T17:40:48;14.80;99.90
10453;DHT22;5274;51.992;8.518;2022-10-26T17:43:14;14.70;99.90
10453;DHT22;5274;51.992;8.518;2022-10-26T17:45:39;14.70;99.90
10453;DHT22;5274;51.992;8.518;2022-10-26T17:48:05;14.70;99.90
10453;DHT22;5274;51.992;8.518;2022-10-26T17:50:30;14.60;99.90
10453;DHT22;5274;51.992;8.518;2022-10-26T17:52:56;14.60;99.90
10453;DHT22;5274;51.992;8.518;2022-10-26T17:55:21;14.50;99.90
10453;DHT22;5274;51.992;8.518;2022-10-26T17:57:47;14.50;99.90
10453;DHT22;5274;51.992;8.518;2022-10-26T18:00:13;14.50;99.90
10453;DHT22;5274;51.992;8.518;2022-10-26T18:02:39;14.40;99.90
10453;DHT22;5274;51.992;8.518;2022-10-26T18:05:05;14.40;99.90
10453;DHT22;5274;51.992;8.518;2022-10-26T18:07:31;14.40;99.90
10453;DHT22;5274;51.992;8.518;2022-10-26T18:09:56;16.20;99.90
10453;DHT22;5274;51.992;8.518;2022-10-26T18:12:22;14.40;99.90
10453;DHT22;5274;51.992;8.518;2022-10-26T18:14:48;14.30;99.90
10453;DHT22;5274;51.992;8.518;2022-10-26T18:17:13;14.30;99.90
10453;DHT22;5274;51.992;8.518;2022-10-26T18:19:39;14.30;99.90
10453;DHT22;5274;51.992;8.518;2022-10-26T18:22:04;14.30;99.90
10453;DHT22;5274;51.992;8.518;2022-10-26T18:24:30;14.30;99.90
10453;DHT22;5274;51.992;8.518;2022-10-26T18:26:55;14.30;99.90
10453;DHT22;5274;51.992;8.518;2022-10-26T18:29:21;14.20;99.90